Time;durP1;ratioP1;P1;durP2;ratioP2;P2;SDS_P1;SDS_P2;PMS_P1;PMS_P2;Temp;Humidity;BMP_temperature;BMP_pressure;BME280_temperature;BME280_humidity;BME280_pressure;Samples;Min_cycle;Max_cycle;Signal;HPM_P1;HPM_P2
2022/02/06 00:02:21;;;;;;;48.80;6.38;;;;;;;7.64;100.00;100710.31;5070949;28;20059;-34
2022/02/06 00:04:49;;;;;;;42.33;6.78;;;;;;;7.65;100.00;100711.97;5072191;28;20055;-39
2022/02/06 00:07:17;;;;;;;40.78;6.75;;;;;;;7.70;100.00;100711.97;5071968;28;20393;-37
2022/02/06 00:09:46;;;;;;;36.40;6.03;;;;;;;7.69;100.00;100704.75;5071480;28;20094;-35
2022/02/06 00:12:34;;;;;;;48.90;6.93;;;;;;;7.70;100.00;100684.19;5063659;28;20076;-35
2022/02/06 00:15:02;;;;;;;28.40;5.43;;;;;;;7.73;100.00;100694.75;5071442;28;20152;-44
2022/02/06 00:17:31;;;;;;;38.63;5.63;;;;;;;7.77;100.00;100695.00;5070717;28;20049;-35
2022/02/06 00:19:59;;;;;;;39.65;7.15;;;;;;;7.77;100.00;100686.69;5071899;28;20051;-36
2022/02/06 00:22:32;;;;;;;48.90;7.00;;;;;;;7.72;100.00;100693.06;5071746;28;20131;-37
2022/02/06 00:25:17;;;;;;;47.92;7.03;;;;;;;7.76;100.00;100669.19;5071146;28;20073;-34
2022/02/06 00:28:05;;;;;;;40.22;6.22;;;;;;;7.78;100.00;100672.50;5061238;28;20429;-34
2022/02/06 00:30:38;;;;;;;38.50;6.55;;;;;;;7.77;100.00;100668.06;5069353;28;20494;-34
2022/02/06 00:33:11;;;;;;;34.70;5.97;;;;;;;7.79;100.00;100688.06;5071600;28;20044;-42
2022/02/06 00:35:59;;;;;;;43.58;6.40;;;;;;;7.84;100.00;100662.19;5071537;28;20086;-33
2022/02/06 00:38:33;;;;;;;;;;;;;;;7.78;100.00;100658.63;5071303;28;20098;-40
2022/02/06 00:41:14;;;;;;;44.10;5.78;;;;;;;7.80;100.00;100661.06;5071742;28;20250;-35
2022/02/06 00:43:44;;;;;;;53.63;7.43;;;;;;;7.83;100.00;100650.22;5071519;28;20501;-33
2022/02/06 00:46:13;;;;;;;51.88;7.53;;;;;;;7.82;100.00;100643.00;5069211;28;20054;-36
2022/02/06 00:48:45;;;;;;;40.63;6.18;;;;;;;7.87;100.00;100645.78;5071220;28;20062;-43
2022/02/06 00:51:17;;;;;;;34.80;5.53;;;;;;;7.87;100.00;100640.22;5070478;28;20044;-39
2022/02/06 00:53:45;;;;;;;33.63;5.57;;;;;;;7.86;100.00;100646.88;5071380;28;20045;-35
2022/02/06 00:56:13;;;;;;;45.92;7.15;;;;;;;7.88;100.00;100647.44;5071337;28;20040;-31
2022/02/06 00:58:40;;;;;;;41.97;6.13;;;;;;;7.91;100.00;100638.53;5070255;28;20044;-40
2022/02/06 01:01:09;;;;;;;36.08;5.85;;;;;;;7.93;100.00;100627.97;5070855;28;20226;-36
2022/02/06 01:03:37;;;;;;;37.40;5.95;;;;;;;7.91;100.00;100632.97;5071321;28;20052;-38
2022/02/06 01:06:05;;;;;;;31.85;5.72;;;;;;;7.92;100.00;100636.59;5070680;28;20244;-35
2022/02/06 01:08:33;;;;;;;37.88;5.65;;;;;;;7.92;100.00;100619.91;5071127;28;20050;-41
2022/02/06 01:11:04;;;;;;;31.80;5.05;;;;;;;7.95;100.00;100625.72;5071070;28;20052;-34
2022/02/06 01:13:40;;;;;;;39.63;5.82;;;;;;;7.96;100.00;100626.56;5070102;28;20087;-32
2022/02/06 01:16:14;;;;;;;34.70;5.70;;;;;;;7.98;100.00;100613.22;5071059;28;20051;-33
2022/02/06 01:18:51;;;;;;;38.00;5.57;;;;;;;7.96;100.00;100593.22;5070980;28;20059;-37
2022/02/06 01:21:26;;;;;;;38.10;6.30;;;;;;;7.97;100.00;100600.44;5070484;28;20066;-35
2022/02/06 01:23:59;;;;;;;46.80;6.10;;;;;;;7.98;100.00;100604.88;5070082;28;20383;-37
2022/02/06 01:26:34;;;;;;;45.67;5.78;;;;;;;7.99;100.00;100603.75;5069759;28;20351;-39
2022/02/06 01:29:12;;;;;;;40.90;6.78;;;;;;;8.01;100.00;100604.28;5070854;28;20056;-39
2022/02/06 01:31:51;;;;;;;33.97;5.18;;;;;;;8.03;100.00;100593.72;5070683;28;20045;-37
2022/02/06 01:34:24;;;;;;;41.08;6.38;;;;;;;8.04;100.00;100611.22;5069955;28;20564;-35
2022/02/06 01:37:05;;;;;;;40.70;6.25;;;;;;;8.06;100.00;100606.19;5071483;28;20055;-33
2022/02/06 01:39:49;;;;;;;39.28;6.18;;;;;;;8.05;100.00;100587.88;5071045;28;20037;-36
2022/02/06 01:42:26;;;;;;;35.00;5.85;;;;;;;8.03;100.00;100582.59;5060361;28;20044;-40
2022/02/06 01:45:08;;;;;;;36.75;5.80;;;;;;;8.08;100.00;100595.63;5067318;28;20057;-39
2022/02/06 02:01:36;;;;;;;33.28;5.78;;;;;;;8.10;100.00;100562.81;5069058;28;20048;-36
2022/02/06 02:04:11;;;;;;;35.45;5.88;;;;;;;8.10;100.00;100563.66;5070641;28;20048;-40
2022/02/06 02:10:04;;;;;;;34.03;6.38;;;;;;;8.11;100.00;100548.63;5046893;28;20440;-42
2022/02/06 02:15:50;;;;;;;39.53;5.57;;;;;;;8.11;100.00;100539.47;5069978;28;20045;-34
2022/02/06 02:21:30;;;;;;;34.20;5.47;;;;;;;8.11;100.00;100525.56;5066785;28;20043;-40
2022/02/06 02:24:20;;;;;;;33.92;4.82;;;;;;;8.12;100.00;100541.97;5069728;28;20044;-38
2022/02/06 02:27:01;;;;;;;35.78;5.75;;;;;;;8.09;100.00;100525.03;5060372;28;20046;-35
2022/02/06 02:30:20;;;;;;;36.97;5.53;;;;;;;8.10;100.00;100515.59;5069354;28;20045;-35
2022/02/06 02:46:43;;;;;;;40.25;5.95;;;;;;;8.06;100.00;100487.53;5073460;28;20393;-38
2022/02/06 02:49:15;;;;;;;41.72;5.60;;;;;;;8.08;100.00;100471.41;5073830;28;20466;-33
2022/02/06 02:51:46;;;;;;;34.65;5.38;;;;;;;8.08;100.00;100473.34;5072980;28;20405;-41
2022/02/06 02:54:23;;;;;;;39.03;6.00;;;;;;;8.06;100.00;100484.75;5073995;28;20053;-42
2022/02/06 02:57:03;;;;;;;35.72;5.25;;;;;;;8.07;100.00;100471.69;5073436;28;20076;-39
2022/02/06 02:59:40;;;;;;;39.20;6.40;;;;;;;8.05;100.00;100469.22;5072569;28;20660;-37
2022/02/06 03:02:08;;;;;;;35.17;4.80;;;;;;;8.01;100.00;100475.63;5073488;28;20048;-35
2022/02/06 03:04:36;;;;;;;37.45;6.05;;;;;;;7.99;100.00;100450.94;5072981;28;20056;-35
2022/02/06 03:07:05;;;;;;;32.30;5.50;;;;;;;8.00;100.00;100454.53;5073321;28;20048;-38
2022/02/06 03:09:39;;;;;;;40.17;6.28;;;;;;;7.97;100.00;100452.34;5073498;28;20049;-42
2022/02/06 03:12:08;;;;;;;40.75;5.50;;;;;;;7.92;100.00;100456.00;5072246;28;20045;-37
2022/02/06 03:14:43;;;;;;;41.05;6.03;;;;;;;7.87;100.00;100445.75;5072930;28;20071;-33
2022/02/06 03:17:18;;;;;;;36.88;5.85;;;;;;;7.86;100.00;100433.00;5073389;28;20440;-40
2022/02/06 03:19:54;;;;;;;41.10;6.05;;;;;;;7.84;100.00;100446.34;5072226;28;20055;-41
2022/02/06 03:22:31;;;;;;;55.10;7.15;;;;;;;7.79;100.00;100426.97;5073148;28;20052;-38
2022/02/06 03:25:06;;;;;;;37.83;5.63;;;;;;;7.78;100.00;100447.53;5072227;28;20051;-37
2022/02/06 03:27:34;;;;;;;45.63;6.38;;;;;;;7.78;100.00;100439.19;5071343;28;20409;-41
2022/02/06 03:30:02;;;;;;;35.85;5.38;;;;;;;7.81;100.00;100429.41;5072701;28;20048;-41
2022/02/06 03:32:30;;;;;;;36.60;4.70;;;;;;;7.82;100.00;100436.63;5072907;28;20053;-40
2022/02/06 03:34:57;;;;;;;38.72;5.10;;;;;;;7.82;100.00;100417.19;5071819;28;20052;-37
2022/02/06 03:37:25;;;;;;;44.47;6.03;;;;;;;7.82;100.00;100415.25;5072534;28;20044;-39
2022/02/06 03:39:55;;;;;;;38.45;5.40;;;;;;;7.82;100.00;100422.75;5072108;28;20113;-37
2022/02/06 03:42:31;;;;;;;30.02;4.85;;;;;;;7.84;100.00;100428.84;5072698;28;20151;-37
2022/02/06 03:45:04;;;;;;;38.08;5.25;;;;;;;7.81;100.00;100401.63;5071284;28;20413;-35
2022/02/06 03:47:46;;;;;;;38.30;5.65;;;;;;;7.84;100.00;100401.88;5071727;28;20052;-40
2022/02/06 03:50:15;;;;;;;31.98;5.05;;;;;;;7.87;100.00;100400.47;5072341;28;20131;-40
2022/02/06 03:52:49;;;;;;;27.17;4.95;;;;;;;7.89;100.00;100390.75;5072432;28;20049;-38
2022/02/06 03:55:21;;;;;;;32.63;6.03;;;;;;;7.91;100.00;100398.78;5071743;28;20083;-34
2022/02/06 03:57:52;;;;;;;33.97;5.07;;;;;;;7.90;100.00;100377.69;5072223;28;20050;-37
2022/02/06 04:00:23;;;;;;;34.63;5.63;;;;;;;7.89;100.00;100373.25;5072304;28;20505;-40
2022/02/06 04:02:53;;;;;;;31.33;4.80;;;;;;;7.91;100.00;100373.78;5071510;28;20322;-42
2022/02/06 04:05:21;;;;;;;39.53;5.22;;;;;;;7.94;100.00;100387.91;5072388;28;20390;-34
2022/02/06 04:07:50;;;;;;;38.90;5.60;;;;;;;7.96;100.00;100382.06;5071930;28;20098;-43
2022/02/06 04:10:19;;;;;;;38.55;6.07;;;;;;;7.99;100.00;100375.09;5071701;28;20501;-38
2022/02/06 04:12:49;;;;;;;36.10;5.07;;;;;;;7.98;100.00;100373.44;5072017;28;20123;-40
2022/02/06 04:15:23;;;;;;;28.75;5.55;;;;;;;8.00;100.00;100376.72;5071123;28;20110;-39
2022/02/06 04:18:06;;;;;;;32.55;5.57;;;;;;;7.99;100.00;100380.66;5072063;28;20131;-36
2022/02/06 04:20:33;;;;;;;;;;;;;;;7.89;100.00;100374.06;5062733;28;20413;-39
2022/02/06 04:23:01;;;;;;;35.53;5.60;;;;;;;7.88;100.00;100375.19;5070886;28;19927;-39
2022/02/06 04:25:29;;;;;;;37.00;5.30;;;;;;;7.89;100.00;100373.25;5071773;28;20122;-34
2022/02/06 04:27:57;;;;;;;30.65;5.18;;;;;;;7.90;100.00;100353.50;5071963;28;20395;-38
2022/02/06 04:30:27;;;;;;;37.53;5.53;;;;;;;7.89;100.00;100378.81;5070473;28;20047;-38
2022/02/06 04:32:55;;;;;;;33.60;5.90;;;;;;;7.90;100.00;100353.50;5071780;28;20076;-36
2022/02/06 04:35:28;;;;;;;34.30;4.50;;;;;;;7.88;100.00;100357.69;5070359;28;20535;-38
2022/02/06 04:38:09;;;;;;;35.40;5.68;;;;;;;7.86;100.00;100355.22;5070267;28;20048;-34
2022/02/06 04:40:50;;;;;;;42.25;5.55;;;;;;;7.83;100.00;100355.78;5070686;28;20067;-35
2022/02/06 04:43:47;;;;;;;42.40;6.32;;;;;;;7.85;100.00;100347.16;5060951;28;20127;-37
2022/02/06 04:52:52;;;;;;;35.00;5.47;;;;;;;7.82;100.00;100337.47;5070458;28;20041;-38
2022/02/06 04:55:50;;;;;;;31.08;5.10;;;;;;;7.81;100.00;100313.59;5065253;28;20477;-32
2022/02/06 05:13:07;;;;;;;34.22;5.53;;;;;;;7.94;100.00;100279.56;5059701;28;20059;-38
2022/02/06 05:15:35;;;;;;;26.77;4.78;;;;;;;7.95;100.00;100278.44;5070759;28;20071;-42
2022/02/06 05:23:52;;;;;;;29.55;4.72;;;;;;;7.99;100.00;100275.91;5071094;28;20056;-38
2022/02/06 05:29:15;;;;;;;36.15;5.70;;;;;;;7.93;100.00;100282.66;5063339;28;20081;-42
2022/02/06 05:31:57;;;;;;;31.42;4.60;;;;;;;7.90;100.00;100255.44;5070872;28;20052;-37
2022/02/06 05:34:24;;;;;;;31.52;4.35;;;;;;;7.87;100.00;100256.88;5068693;28;20057;-40
2022/02/06 05:36:53;;;;;;;31.77;4.50;;;;;;;7.86;100.00;100266.31;5070865;28;20048;-34
2022/02/06 05:39:21;;;;;;;36.85;4.53;;;;;;;7.86;100.00;100249.66;5069949;28;20036;-37
2022/02/06 05:41:49;;;;;;;35.67;5.20;;;;;;;7.88;100.00;100241.84;5070700;28;20269;-34
2022/02/06 05:44:16;;;;;;;33.35;5.75;;;;;;;7.88;100.00;100252.97;5070729;28;20052;-34
2022/02/06 05:46:44;;;;;;;36.42;5.68;;;;;;;7.89;100.00;100232.41;5069955;28;20489;-38
2022/02/06 05:49:12;;;;;;;35.65;5.63;;;;;;;7.91;100.00;100244.03;5070913;28;20048;-38
2022/02/06 05:51:41;;;;;;;26.60;4.15;;;;;;;7.94;100.00;100234.28;5070773;28;20167;-41
2022/02/06 05:54:11;;;;;;;43.05;5.35;;;;;;;7.90;100.00;100239.59;5069658;28;20082;-38
2022/02/06 05:56:39;;;;;;;26.52;4.78;;;;;;;7.92;100.00;100231.81;5070409;28;20310;-41
2022/02/06 05:59:07;;;;;;;34.78;5.43;;;;;;;7.94;100.00;100215.69;5066836;28;20528;-33
2022/02/06 06:01:35;;;;;;;31.67;4.53;;;;;;;7.93;100.00;100222.34;5069627;28;20554;-35
2022/02/06 06:04:03;;;;;;;32.00;4.75;;;;;;;7.94;100.00;100217.63;5070785;28;20051;-39
2022/02/06 06:06:35;;;;;;;31.73;4.95;;;;;;;7.94;100.00;100212.06;5070615;28;20096;-35
2022/02/06 06:09:03;;;;;;;32.75;4.63;;;;;;;7.91;100.00;100196.81;5069743;28;20056;-41
2022/02/06 06:11:32;;;;;;;32.03;5.13;;;;;;;7.94;100.00;100207.34;5069478;28;20064;-32
2022/02/06 06:14:00;;;;;;;33.13;5.18;;;;;;;7.97;100.00;100182.88;5072579;28;20413;-34
2022/02/06 06:16:28;;;;;;;38.05;6.15;;;;;;;7.93;100.00;100182.63;5071926;28;20425;-41
2022/02/06 06:18:56;;;;;;;34.80;4.78;;;;;;;7.87;100.00;100170.75;5073185;28;20486;-39
2022/02/06 06:21:26;;;;;;;35.30;4.93;;;;;;;7.87;100.00;100184.66;5073707;28;20047;-39
2022/02/06 06:23:55;;;;;;;28.98;4.97;;;;;;;7.86;100.00;100183.00;5070728;28;20052;-39
2022/02/06 06:26:25;;;;;;;33.88;5.60;;;;;;;7.86;100.00;100180.22;5073289;28;20049;-33
2022/02/06 06:28:54;;;;;;;38.67;5.22;;;;;;;7.88;100.00;100152.13;5071257;28;20054;-37
2022/02/06 06:31:22;;;;;;;42.42;5.70;;;;;;;7.86;100.00;100171.88;5069542;28;20097;-37
2022/02/06 06:33:50;;;;;;;40.45;5.53;;;;;;;7.88;100.00;100164.06;5070623;28;20088;-38
2022/02/06 06:36:20;;;;;;;34.42;5.00;;;;;;;7.87;100.00;100144.94;5071672;28;20045;-33
2022/02/06 06:38:49;;;;;;;37.15;6.30;;;;;;;7.89;100.00;100143.50;5072516;28;20520;-39
2022/02/06 06:41:17;;;;;;;36.40;5.95;;;;;;;7.92;100.00;100142.09;5072489;28;20049;-36
2022/02/06 06:43:45;;;;;;;32.58;5.63;;;;;;;7.91;100.00;100149.59;5071470;28;20103;-37
2022/02/06 06:46:14;;;;;;;32.72;5.00;;;;;;;7.93;100.00;100138.19;5072667;28;20094;-35
2022/02/06 06:48:42;;;;;;;29.23;4.85;;;;;;;7.95;100.00;100122.06;5063146;28;20059;-36
2022/02/06 06:51:10;;;;;;;29.88;4.57;;;;;;;7.95;100.00;100133.16;5071645;28;20063;-39
2022/02/06 06:53:41;;;;;;;30.50;4.88;;;;;;;7.94;100.00;100123.16;5071829;28;20520;-36
2022/02/06 06:56:14;;;;;;;33.40;5.20;;;;;;;7.98;100.00;100103.97;5072467;28;20488;-40
2022/02/06 06:58:46;;;;;;;41.08;5.55;;;;;;;7.95;100.00;100103.44;5071199;28;20512;-39
2022/02/06 07:01:43;;;;;;;39.37;6.07;;;;;;;7.97;100.00;100105.09;5071657;28;20432;-44
2022/02/06 07:04:11;;;;;;;31.35;4.60;;;;;;;7.97;100.00;100100.34;5061942;28;20632;-42
2022/02/06 07:06:55;;;;;;;34.92;4.82;;;;;;;7.98;100.00;100078.94;5071983;28;20455;-43
2022/02/06 07:09:24;;;;;;;35.03;4.82;;;;;;;7.98;100.00;100084.50;5072030;28;20059;-35
2022/02/06 07:11:51;;;;;;;35.38;4.88;;;;;;;8.01;100.00;100072.78;5071104;28;20056;-40
2022/02/06 07:14:19;;;;;;;34.97;5.53;;;;;;;8.01;100.00;100053.31;5071497;28;20155;-37
2022/02/06 07:16:48;;;;;;;38.20;5.07;;;;;;;7.96;100.00;100059.81;5071257;28;20055;-32
2022/02/06 07:19:17;;;;;;;32.10;4.53;;;;;;;7.96;100.00;100048.69;5069354;28;20424;-35
2022/02/06 07:21:45;;;;;;;23.13;3.90;;;;;;;7.98;100.00;100040.88;5071073;28;20068;-31
2022/02/06 07:24:14;;;;;;;29.48;4.72;;;;;;;8.00;100.00;100035.81;5070167;28;20048;-39
2022/02/06 07:26:48;;;;;;;36.20;4.70;;;;;;;8.03;100.00;100048.28;5070326;28;20548;-40
2022/02/06 07:29:17;;;;;;;30.45;5.45;;;;;;;8.03;100.00;100038.00;5070712;28;20112;-39
2022/02/06 07:31:46;;;;;;;33.90;4.60;;;;;;;8.04;100.00;100008.28;5071004;28;20119;-38
2022/02/06 07:34:15;;;;;;;33.70;5.72;;;;;;;8.06;100.00;100017.97;5066792;28;20051;-41
2022/02/06 07:36:43;;;;;;;30.98;4.70;;;;;;;8.05;100.00;100004.38;5070810;28;20127;-34
2022/02/06 07:39:11;;;;;;;31.95;4.90;;;;;;;8.03;100.00;100004.66;5070173;28;20110;-35
2022/02/06 07:41:39;;;;;;;36.60;5.65;;;;;;;8.03;100.00;100001.88;5070184;28;20135;-37
2022/02/06 07:44:07;;;;;;;32.20;5.10;;;;;;;8.03;100.00;99982.44;5070771;28;20123;-36
2022/02/06 07:46:42;;;;;;;30.02;5.10;;;;;;;8.01;100.00;100008.88;5068413;28;20075;-33
2022/02/06 07:49:10;;;;;;;35.22;5.72;;;;;;;8.02;100.00;99974.41;5070710;28;20068;-37
2022/02/06 07:51:42;;;;;;;41.35;5.43;;;;;;;8.03;100.00;100003.84;5069912;28;20075;-36
2022/02/06 07:54:10;;;;;;;31.55;4.95;;;;;;;8.00;100.00;99949.69;5065697;28;20090;-36
2022/02/06 07:56:38;;;;;;;34.67;5.25;;;;;;;8.02;100.00;99963.28;5069705;28;20493;-38
2022/02/06 07:59:06;;;;;;;34.70;5.05;;;;;;;8.05;100.00;99951.56;5069395;28;20079;-34
2022/02/06 08:01:34;;;;;;;42.60;6.75;;;;;;;8.03;100.00;99951.06;5068608;28;20056;-41
2022/02/06 08:04:02;;;;;;;40.17;5.15;;;;;;;7.99;100.00;99952.81;5069202;28;20064;-45
2022/02/06 08:06:30;;;;;;;35.17;5.78;;;;;;;7.94;100.00;99926.75;5069801;28;20189;-35
2022/02/06 08:08:59;;;;;;;36.60;6.20;;;;;;;7.88;100.00;99930.75;5068892;28;20075;-36
2022/02/06 08:11:27;;;;;;;35.30;4.50;;;;;;;7.85;100.00;99908.31;5060281;28;20070;-31
2022/02/06 08:13:56;;;;;;;44.13;5.88;;;;;;;7.84;100.00;99926.09;5070212;28;20052;-38
2022/02/06 08:16:24;;;;;;;36.92;5.57;;;;;;;7.80;100.00;99916.72;5069535;28;20049;-41
2022/02/06 08:18:52;;;;;;;41.78;5.65;;;;;;;7.77;100.00;99895.97;5070965;28;20075;-38
2022/02/06 08:21:19;;;;;;;44.03;6.38;;;;;;;7.75;100.00;99880.72;5070116;28;20046;-35
2022/02/06 08:23:47;;;;;;;48.90;6.22;;;;;;;7.73;100.00;99880.22;5070166;28;20045;-41
2022/02/06 08:26:40;;;;;;;42.38;6.10;;;;;;;7.67;100.00;99885.03;5058764;28;20066;-39
2022/02/06 08:29:09;;;;;;;45.05;5.65;;;;;;;7.67;100.00;99871.13;5069207;28;20032;-41
2022/02/06 08:31:37;;;;;;;46.20;6.03;;;;;;;7.69;100.00;99868.06;5070426;28;20067;-42
2022/02/06 08:34:05;;;;;;;54.28;7.38;;;;;;;7.68;100.00;99858.06;5068298;28;20044;-42
2022/02/06 08:36:33;;;;;;;39.85;5.32;;;;;;;7.68;100.00;99831.13;5069499;28;20059;-36
2022/02/06 08:39:05;;;;;;;55.80;6.07;;;;;;;7.67;100.00;99842.53;5059155;28;20041;-33
2022/02/06 08:41:33;;;;;;;52.35;6.30;;;;;;;7.64;100.00;99826.50;5070212;28;20059;-37
2022/02/06 08:44:04;;;;;;;39.30;6.20;;;;;;;7.64;100.00;99819.00;5069588;28;20055;-37
2022/02/06 08:46:32;;;;;;;47.85;5.68;;;;;;;7.62;100.00;99826.78;5070316;28;20056;-41
2022/02/06 08:49:00;;;;;;;46.40;5.28;;;;;;;7.64;100.00;99790.41;5066551;28;20041;-38
2022/02/06 08:51:27;;;;;;;52.42;7.00;;;;;;;7.65;100.00;99778.16;5058357;28;20421;-37
2022/02/06 08:53:55;;;;;;;53.90;8.15;;;;;;;7.65;100.00;99789.28;5069804;28;20147;-34
2022/02/06 08:56:26;;;;;;;53.78;6.85;;;;;;;7.66;100.00;99765.94;5069785;28;20128;-35
2022/02/06 08:58:54;;;;;;;47.92;6.28;;;;;;;7.67;100.00;99756.47;5069869;28;20045;-35
2022/02/06 09:01:23;;;;;;;55.47;7.03;;;;;;;7.66;100.00;99741.75;5066618;28;20075;-37
2022/02/06 09:03:51;;;;;;;56.35;7.82;;;;;;;7.66;100.00;99716.78;5069083;28;20049;-34
2022/02/06 09:06:19;;;;;;;55.50;7.07;;;;;;;7.70;100.00;99742.81;5069774;28;20051;-37
2022/02/06 09:08:53;;;;;;;48.33;6.93;;;;;;;7.69;100.00;99757.00;5068493;28;20131;-32
2022/02/06 09:11:22;;;;;;;50.53;7.55;;;;;;;7.66;100.00;99736.22;5069178;28;20091;-32
2022/02/06 09:13:50;;;;;;;54.50;7.55;;;;;;;7.66;100.00;99714.00;5069586;28;20078;-33
2022/02/06 09:16:18;;;;;;;49.05;6.45;;;;;;;7.67;100.00;99709.28;5069483;28;20076;-36
2022/02/06 09:18:47;;;;;;;54.67;6.57;;;;;;;7.66;100.00;99727.06;5068778;28;20055;-34
2022/02/06 09:21:16;;;;;;;59.40;8.55;;;;;;;7.66;100.00;99696.53;5069806;28;20131;-42
2022/02/06 09:23:44;;;;;;;51.42;7.00;;;;;;;7.69;100.00;99695.91;5069733;28;20040;-36
2022/02/06 09:26:11;;;;;;;57.78;7.60;;;;;;;7.69;100.00;99693.97;5069122;28;20055;-36
2022/02/06 09:28:43;;;;;;;51.63;6.38;;;;;;;7.70;100.00;99705.88;5069049;28;20072;-35
2022/02/06 09:31:11;;;;;;;52.50;7.03;;;;;;;7.68;100.00;99694.25;5069494;28;20135;-36
2022/02/06 09:36:07;;;;;;;48.40;6.50;;;;;;;7.70;100.00;99692.00;5069453;28;20045;-36
2022/02/06 09:38:34;;;;;;;45.30;6.78;;;;;;;7.70;100.00;99669.78;5068892;28;20044;-31
2022/02/06 09:41:02;;;;;;;38.45;5.95;;;;;;;7.68;100.00;99677.59;5069728;28;20048;-35
2022/02/06 09:43:30;;;;;;;48.80;6.88;;;;;;;7.73;100.00;99688.63;5069263;28;20131;-35
2022/02/06 09:46:01;;;;;;;40.67;5.93;;;;;;;7.78;100.00;99731.00;5068616;28;20143;-34
2022/02/06 09:48:30;;;;;;;24.65;3.47;;;;;;;7.78;100.00;99813.47;5072140;28;20057;-39
2022/02/06 09:50:59;;;;;;;18.30;2.38;;;;;;;7.39;100.00;99823.06;5073051;28;20059;-39
2022/02/06 09:53:29;;;;;;;28.17;2.65;;;;;;;6.94;100.00;99807.97;5072675;28;20053;-37
2022/02/06 09:56:01;;;;;;;20.48;2.50;;;;;;;6.62;100.00;99802.34;5073205;28;20610;-40
2022/02/06 09:58:56;;;;;;;;;;;;;;;6.38;100.00;99794.94;5074106;28;20060;-39
2022/02/06 10:01:28;;;;;;;11.20;1.75;;;;;;;6.26;100.00;99797.28;5069241;28;20020;-43
2022/02/06 10:04:05;;;;;;;18.55;2.13;;;;;;;6.24;100.00;99816.16;5072634;28;20052;-40
2022/02/06 10:06:39;;;;;;;17.20;2.65;;;;;;;6.22;100.00;99810.91;5072980;28;20047;-37
2022/02/06 10:09:15;;;;;;;17.65;2.42;;;;;;;6.25;100.00;99812.25;5073756;28;20143;-42
2022/02/06 10:11:47;;;;;;;19.85;2.50;;;;;;;6.25;100.00;99812.25;5073346;28;20048;-38
2022/02/06 10:14:14;;;;;;;14.40;1.93;;;;;;;6.23;100.00;99822.81;5072505;28;20048;-43
2022/02/06 10:16:42;;;;;;;22.13;2.42;;;;;;;6.19;100.00;99827.31;5072295;28;20413;-40
2022/02/06 10:19:10;;;;;;;12.48;2.08;;;;;;;6.16;100.00;99822.34;5073008;28;20486;-35
2022/02/06 10:21:38;;;;;;;11.30;2.10;;;;;;;6.12;100.00;99815.75;5072166;28;20079;-34
2022/02/06 10:24:12;;;;;;;13.82;2.17;;;;;;;6.11;100.00;99823.22;5069045;28;20090;-40
2022/02/06 10:26:51;;;;;;;10.80;1.27;;;;;;;6.06;100.00;99812.22;5072455;28;20417;-40
2022/02/06 10:29:36;;;;;;;12.25;2.03;;;;;;;6.06;100.00;99803.06;5068689;28;20044;-38
2022/02/06 10:32:06;;;;;;;13.25;2.53;;;;;;;6.06;100.00;99800.31;5072700;28;20393;-37
2022/02/06 10:34:36;;;;;;;8.90;1.35;;;;;;;6.09;100.00;99785.88;5070439;28;20048;-39
2022/02/06 10:37:13;;;;;;;15.63;1.73;;;;;;;6.11;100.00;99781.69;5071632;28;20146;-41
2022/02/06 10:39:51;;;;;;;11.30;1.30;;;;;;;6.15;100.00;99770.84;5069600;28;20140;-39
2022/02/06 10:42:23;;;;;;;13.98;1.92;;;;;;;6.17;100.00;99777.75;5071978;28;20047;-36
2022/02/06 10:44:52;;;;;;;12.73;1.60;;;;;;;6.19;100.00;99785.75;5069875;28;20056;-41
2022/02/06 10:47:33;;;;;;;13.00;1.98;;;;;;;6.27;100.00;99792.56;5069678;28;20056;-34
2022/02/06 10:50:06;;;;;;;13.25;1.70;;;;;;;6.31;100.00;99802.75;5071836;28;20044;-37
2022/02/06 10:52:34;;;;;;;13.00;1.70;;;;;;;6.36;100.00;99793.56;5071961;28;20048;-39
2022/02/06 10:55:02;;;;;;;10.68;1.52;;;;;;;6.38;100.00;99814.31;5072560;28;20045;-36
2022/02/06 10:57:32;;;;;;;10.63;1.90;;;;;;;6.39;100.00;99802.13;5071272;28;20438;-37
2022/02/06 11:00:00;;;;;;;16.88;1.85;;;;;;;6.40;100.00;99800.13;5070843;28;20418;-40
2022/02/06 11:02:30;;;;;;;11.82;1.70;;;;;;;6.43;100.00;99802.31;5071507;28;20110;-41
2022/02/06 11:05:07;;;;;;;11.63;1.42;;;;;;;6.44;100.00;99796.47;5071065;28;20178;-38
2022/02/06 11:07:35;;;;;;;15.95;1.85;;;;;;;6.46;100.00;99798.97;5072482;28;20058;-38
2022/02/06 11:10:07;;;;;;;11.88;1.67;;;;;;;6.51;100.00;99791.41;5071289;28;20059;-33
2022/02/06 11:12:41;;;;;;;18.35;2.05;;;;;;;6.53;100.00;99786.41;5072098;28;20048;-40
2022/02/06 11:15:25;;;;;;;12.38;1.83;;;;;;;6.55;100.00;99788.88;5071972;28;20064;-36
2022/02/06 11:18:06;;;;;;;8.57;1.58;;;;;;;6.57;100.00;99779.13;5063967;28;20056;-36
2022/02/06 11:20:35;;;;;;;11.98;1.40;;;;;;;6.59;100.00;99783.56;5072172;28;20052;-40
2022/02/06 11:23:03;;;;;;;18.70;1.88;;;;;;;6.63;100.00;99781.81;5071845;28;20505;-31
2022/02/06 11:25:32;;;;;;;14.18;1.92;;;;;;;6.70;100.00;99771.19;5070967;28;20052;-35
2022/02/06 11:28:04;;;;;;;14.55;2.08;;;;;;;6.74;100.00;99766.69;5071421;28;20047;-36
2022/02/06 11:30:32;;;;;;;11.82;1.60;;;;;;;6.77;100.00;99763.31;5071971;28;20051;-35
2022/02/06 11:33:00;;;;;;;10.77;1.42;;;;;;;6.81;100.00;99773.47;5070862;28;20055;-37
2022/02/06 11:35:30;;;;;;;15.80;1.90;;;;;;;6.86;100.00;99789.22;5067991;28;20511;-41
2022/02/06 11:44:17;;;;;;;12.40;1.52;;;;;;;6.97;100.00;99798.22;5072355;28;20054;-43
2022/02/06 11:46:51;;;;;;;15.10;1.58;;;;;;;7.02;100.00;99801.72;5070524;28;20048;-38
2022/02/06 11:49:20;;;;;;;12.27;1.85;;;;;;;7.08;100.00;99814.41;5072413;28;20135;-37
2022/02/06 11:51:53;;;;;;;16.30;2.10;;;;;;;7.12;100.00;99806.31;5072041;28;20045;-38
2022/02/06 11:54:29;;;;;;;16.42;2.13;;;;;;;7.14;100.00;99809.59;5071337;28;20049;-34
2022/02/06 11:57:20;;;;;;;14.60;1.90;;;;;;;7.19;100.00;99810.31;5072073;28;20123;-37
2022/02/06 12:00:18;;;;;;;14.65;1.98;;;;;;;7.19;100.00;99804.75;5071487;28;20489;-37
2022/02/06 12:02:50;;;;;;;15.52;2.05;;;;;;;7.23;100.00;99805.81;5071558;28;20581;-39
2022/02/06 12:05:23;;;;;;;16.50;1.70;;;;;;;7.26;100.00;99808.00;5071495;28;20477;-40
2022/02/06 12:07:55;;;;;;;16.27;2.00;;;;;;;7.32;100.00;99810.69;5071334;28;20135;-38
2022/02/06 12:10:44;;;;;;;14.82;2.22;;;;;;;7.32;100.00;99808.72;5071463;28;20214;-33
2022/02/06 12:13:29;;;;;;;17.35;2.50;;;;;;;7.35;100.00;99802.59;5060795;28;20441;-40
2022/02/06 12:16:00;;;;;;;14.07;2.20;;;;;;;7.38;100.00;99804.75;5068784;28;20412;-39
2022/02/06 12:18:29;;;;;;;15.70;2.05;;;;;;;7.44;100.00;99813.78;5071325;28;20048;-37
2022/02/06 12:20:58;;;;;;;13.45;2.38;;;;;;;7.47;100.00;99811.25;5069942;28;20135;-37
2022/02/06 12:23:46;;;;;;;15.32;2.10;;;;;;;7.50;100.00;99812.59;5071574;28;20040;-37
2022/02/06 12:26:44;;;;;;;12.82;1.70;;;;;;;7.51;100.00;99803.13;5068106;28;20045;-34
2022/02/06 12:29:20;;;;;;;11.30;1.65;;;;;;;7.54;100.00;99808.09;5064138;28;20119;-34
2022/02/06 12:31:57;;;;;;;16.70;2.50;;;;;;;7.60;100.00;99807.66;5071177;28;20516;-34
2022/02/06 12:37:33;;;;;;;16.80;2.15;;;;;;;7.67;100.00;99807.28;5064729;28;20421;-36
2022/02/06 12:40:05;;;;;;;15.25;1.83;;;;;;;7.73;100.00;99808.84;5071539;28;20066;-39
2022/02/06 12:42:38;;;;;;;15.27;1.88;;;;;;;7.78;100.00;99797.66;5070676;28;20448;-36
2022/02/06 12:45:10;;;;;;;18.23;2.00;;;;;;;7.84;100.00;99807.50;5071078;28;20044;-36
2022/02/06 12:47:42;;;;;;;16.83;1.98;;;;;;;7.95;100.00;99808.97;5071015;28;20044;-35
2022/02/06 12:50:15;;;;;;;17.05;2.10;;;;;;;8.08;100.00;99814.81;5070467;28;20044;-38
2022/02/06 12:52:43;;;;;;;12.75;2.00;;;;;;;8.12;100.00;99801.97;5071484;28;20055;-37
2022/02/06 12:55:12;;;;;;;14.75;2.55;;;;;;;8.14;100.00;99808.03;5070840;28;20044;-36
2022/02/06 12:57:45;;;;;;;14.70;2.05;;;;;;;8.15;100.00;99804.13;5070104;28;20041;-35
2022/02/06 13:00:35;;;;;;;12.70;1.52;;;;;;;8.12;100.00;99807.53;5071429;28;20050;-44
2022/02/06 13:03:36;;;;;;;12.80;2.13;;;;;;;8.14;100.00;99821.94;5060860;28;20055;-33
2022/02/06 13:06:08;;;;;;;20.77;2.40;;;;;;;8.14;100.00;99813.59;5009347;28;20542;-35